x

Destruction Island, Wa (desw1) Weather Station

7:00 - Wed 4th May 2016 All times are PDT. -7 hours from GMT.

  • Wind
    24mph, 26mph gusts
  • Air Temp 51°f
  • Sea Pressure 1016.6mb
  • Destruction Island, Wa
  • Destruction Island, Wa

More Historic Weather Station data

Upgrade to MSW Pro to gain access to the past 30 days of data for over 8000 Wavebouys and Weather Stations around the globe.

Join Pro

Comparision Forecast

View Surf forecast
   
mer. 05/04 7:00 24 26 mph 1016.6mb 51f
6:00 23 25 mph 1017mb 52f
5:00 22 23 mph 1017.3mb 52f
4:00 22 24 mph 1017.6mb 52f
3:00 23 24 mph 1018mb 52f
2:00 23 26 mph 1018.3mb 52f
1:00 22 24 mph 1018.7mb 52f
12:00 22 23 mph 1018.9mb 52f
11:00 21 22 mph 1018.9mb 51f
10:00 18 20 mph 1019.1mb 51f
9:00 22 23 mph 1019.2mb 51f
8:00 20 22 mph 1019.3mb 50f
7:00 20 21 mph 1019.4mb 50f
6:00 16 17 mph 1019.7mb 50f
5:00 20 22 mph 1020mb 51f
4:00 24 26 mph 1020mb 51f
3:00 20 21 mph 1020.1mb 51f
2:00 20 21 mph 1020.4mb 51f
1:00 18 20 mph 1020.9mb 51f
12:00 20 21 mph 1021mb 51f
mar. 05/03 11:00 18 21 mph 1021.3mb 51f
10:00 21 22 mph 1021.2mb 51f
9:00 22 24 mph 1020.8mb 52f
8:00 23 24 mph 1020.4mb 52f
7:00 22 24 mph 1020.1mb 52f
6:00 28 29 mph 1019.7mb 53f
5:00 22 23 mph 1020.1mb 53f
4:00 18 20 mph 1019.9mb 53f
3:00 16 17 mph 1020mb 53f
2:00 15
mph
1019.6mb 53f
1:00 11 13 mph 1019.5mb 54f
12:00 7 8 mph 1019.2mb 55f
11:00 7 8 mph 1018.9mb 53f
10:00 8 9 mph 1018.2mb 53f
9:00 7 8 mph 1018.1mb 53f
8:00 3 5 mph 1017mb 54f
7:00  -  mph 1017mb 54f
6:00 3 5 mph 1017.3mb 53f
5:00  -  1 mph 1017.5mb 53f
4:00 6
mph
1017mb 53f
3:00 6
mph
1016.9mb 53f
2:00 7
mph
1016.9mb 54f
1:00 9
mph
1016.7mb 54f
12:00  -  1 mph 1015.9mb 54f
lun. 05/02 11:00  -  1 mph 1015.5mb 55f
10:00 1 2 mph 1015.4mb 55f
9:00 7
mph
1014.9mb 55f
8:00 11 13 mph 1014.6mb 56f
7:00 21 23 mph 1014.3mb 56f
6:00 15 17 mph 1014.5mb 57f
5:00 15 17 mph 1014.6mb 58f
4:00 22 24 mph 1014mb 58f
3:00 15 16 mph 1014mb 59f
2:00 17 18 mph 1013.6mb 60f
1:00 29 30 mph 1013.2mb 62f
12:00 28 31 mph 1013.1mb 66f
11:00 25 26 mph 1012.8mb 68f
10:00 15 17 mph 1012.7mb 69f
9:00 10 11 mph 1012.8mb 65f
8:00 13 15 mph 1012mb 68f
7:00 13 15 mph 1012mb 60f
6:00 14 15 mph 1012.1mb 59f
5:00 11
mph
1012.3mb 59f
4:00 18 20 mph 1012.2mb 59f
3:00 14 15 mph 1012.4mb 58f
2:00 17 18 mph 1012.3mb 59f
1:00 17 18 mph 1012.2mb 58f
12:00 20 21 mph 1012.3mb 62f
dim. 05/01 11:00 13
mph
1012.8mb 64f
10:00 6 7 mph 1012.9mb 59f
9:00 10
mph
1012.8mb 58f
8:00 14 15 mph 1012.8mb 58f
7:00 17 18 mph 1013.2mb 58f
6:00 21
mph
1013.9mb 57f
5:00 16
mph
1015.1mb 56f
4:00 9 10 mph 1016.3mb 55f
3:00 6 7 mph 1017.1mb 58f
2:00 10 11 mph 1017.6mb 55f
1:00 5
mph
1018.4mb 55f
12:00 2 3 mph 1019.4mb 56f
11:00 1 3 mph 1020mb 54f
10:00  -  2 mph 1020.7mb 54f
9:00 2 3 mph 1021.6mb 53f
8:00 8 9 mph 1022.2mb 52f
7:00 8
mph
1022.5mb 50f
6:00 9
mph
1022.7mb 48f
5:00 10 11 mph 1023.2mb 48f
4:00 9
mph
1023.8mb 49f